Keresley, United Kingdom
Current Conditions -  °F | °C
As of 1:50 AM on Thursday 27 Nov 2014 (Local Time) from EGBE Reporting Station
Light Rain Light Rain  
Wind Chill:   Ceiling: 200
Heat Index:   Visibility: 0.75mi
Dew Point:   Wind: 3mph
Humidity: 100%   Direction: 60°ENE
Pressure: 29.68"   Gusts: NA
Location:  52.45°N, 1.53°W
Report Text: EGBE 270150Z 06003KT 1200 -RADZ BR BKN002 OVC005 08/08 Q1005
Loading
Personal Weather Stations






























Interactive Weather Map New forecast layout! Learn more

10-Day Weather Forecast

Advertisements
Track Severe Weather on mobile